Latest Weather Observations for Cape Nelson

IDV60801

Issued at 8:02 pm EST Wednesday 17 July 2024 (issued every 10 minutes, with the page automatically refreshed every 10 minutes)

About weather observations | Map of weather stations | Latest weather observations for VIC | Other Formats
Station Details ID: 090184 Name: CAPE NELSON LIGHTHOUSE Lat: -38.43 Lon: 141.54 Height: 45.4 m
Data from the previous 72 hours. | See also: Recent months at Cape Nelson
Date/Time
EST
Temp
°C
App
Temp
°C
Dew
Point
°C
Rel
Hum
%
Delta-T
°C
Wind Press
QNH
hPa
Press
MSL
hPa
Rain since
9am
mm
Dir  Spd
km/h
Gust
km/h
Spd
kts
Gust
kts
17/08:00pm 10.9 4.4 4.6 65 2.8 S 28 37 15 20 1017.8 1017.9 0.0
17/07:30pm 11.0 4.2 3.1 58 3.4 SSW 28 39 15 21 1017.6 1017.7 0.0
17/07:00pm 11.3 4.5 5.0 65 2.9 S 30 39 16 21 1017.4 1017.5 0.0
17/06:30pm 11.3 4.7 4.1 61 3.2 S 28 41 15 22 1017.1 1017.2 0.0
17/06:00pm 11.3 4.8 4.5 63 3.1 SSW 28 37 15 20 1016.8 1016.8 0.0
17/05:30pm 11.3 4.0 4.3 62 3.1 SSW 32 44 17 24 1016.7 1016.7 0.0
17/05:00pm 11.4 4.0 3.9 60 3.3 SSW 32 44 17 24 1016.3 1016.3 0.0
17/04:30pm 11.7 4.6 5.6 66 2.8 S 32 46 17 25 1016.0 1016.0 0.0
17/04:00pm 12.0 6.0 6.9 71 2.4 S 28 39 15 21 1015.8 1015.8 0.0
17/03:30pm 12.1 6.8 7.0 71 2.5 SSW 24 35 13 19 1015.5 1015.5 0.0
17/03:00pm 12.4 6.7 6.5 67 2.8 S 26 37 14 20 1015.3 1015.3 0.0
17/02:30pm 12.5 6.6 5.9 64 3.1 S 26 37 14 20 1015.3 1015.3 0.0
17/02:00pm 12.3 6.5 6.1 66 2.9 S 26 32 14 17 1015.3 1015.3 0.0
17/01:30pm 12.3 6.7 5.2 62 3.3 S 24 32 13 17 1015.5 1015.5 0.0
17/01:00pm 12.1 6.3 6.2 67 2.8 S 26 35 14 19 1015.6 1015.6 0.0
17/12:30pm 12.2 5.5 5.8 65 3.0 S 30 41 16 22 1015.9 1015.9 0.0
17/12:00pm 12.1 6.2 7.4 73 2.3 SSE 28 37 15 20 1016.1 1016.1 0.0
17/11:30am 11.5 5.0 8.0 79 1.7 SSE 32 41 17 22 1016.4 1016.4 0.0
17/11:00am 11.8 5.5 8.8 82 1.5 S 32 43 17 23 1016.4 1016.4 0.0
17/10:30am 11.3 4.1 9.2 87 1.1 SSE 37 46 20 25 1016.2 1016.2 0.0
17/10:00am 10.5 3.4 9.6 94 0.5 S 37 46 20 25 1016.0 1016.0 0.0
17/09:30am 11.0 3.7 10.1 94 0.5 SSE 39 48 21 26 1015.7 1015.7 0.0
17/09:00am 11.1 4.2 10.3 95 0.4 SSE 37 48 20 26 1015.3 1015.3 4.4
17/08:51am 11.4 5.9 10.6 95 0.4 SSE 30 48 16 26 1015.2 1015.2 4.4
17/08:30am 11.2 4.2 10.0 92 0.6 S 37 50 20 27 1015.0 1015.0 4.2
17/08:00am 11.4 5.4 10.0 91 0.7 SSE 32 43 17 23 1014.8 1014.8 4.2
17/07:30am 11.5 4.6 10.2 92 0.7 SSE 37 52 20 28 1014.5 1014.5 4.2
17/07:24am 11.9 5.8 10.6 92 0.7 SSE 33 52 18 28 1014.4 1014.4 4.2
17/07:00am 11.3 4.0 10.2 93 0.6 SSE 39 48 21 26 1014.2 1014.2 4.0
17/06:30am 11.9 5.8 10.5 91 0.7 SSE 33 46 18 25 1013.8 1013.8 4.0
17/06:00am 12.0 6.9 10.6 91 0.7 SSE 28 41 15 22 1013.5 1013.5 4.0
17/05:30am 12.1 6.2 11.0 93 0.6 SSE 33 46 18 25 1013.2 1013.2 4.0
17/05:00am 11.8 6.9 11.2 96 0.3 SSE 28 39 15 21 1013.1 1013.1 4.0
17/04:39am 11.9 6.0 11.0 94 0.5 SSE 33 54 18 29 1013.1 1013.1 3.6
17/04:30am 12.1 6.4 11.2 94 0.5 SSE 32 43 17 23 1013.2 1013.2 3.6
17/04:00am 12.3 6.3 10.9 91 0.7 SSE 33 43 18 23 1013.2 1013.2 3.0
17/03:30am 12.5 7.4 10.6 88 1.0 SSE 28 39 15 21 1013.3 1013.3 2.6
17/03:00am 13.0 8.3 10.7 86 1.2 SSE 26 35 14 19 1013.1 1013.1 2.6
17/02:30am 13.1 8.7 10.3 83 1.5 SSE 24 32 13 17 1013.1 1013.1 2.6
17/02:00am 13.0 7.6 9.4 79 1.8 SSE 28 33 15 18 1013.0 1013.0 2.6
17/01:30am 12.9 7.6 9.7 81 1.6 SSE 28 37 15 20 1013.0 1013.0 2.6
17/01:00am 13.0 7.4 10.0 82 1.5 SSE 30 41 16 22 1013.2 1013.2 2.6
17/12:30am 12.8 7.2 10.0 83 1.4 SSE 30 39 16 21 1013.3 1013.3 2.6
17/12:00am 12.7 7.5 10.2 85 1.3 SSE 28 39 15 21 1013.4 1013.4 2.6
 
Date/Time
EST
Temp
°C
App
Temp
°C
Dew
Point
°C
Rel
Hum
%
Delta-T
°C
Wind Press
QNH
hPa
Press
MSL
hPa
Rain since
9am
mm
Dir  Spd
km/h
Gust
km/h
Spd
kts
Gust
kts
16/11:30pm 12.7 7.7 10.8 88 1.0 S 28 39 15 21 1013.4 1013.4 2.6
16/11:00pm 12.6 6.9 11.0 90 0.8 S 32 41 17 22 1013.5 1013.5 2.6
16/10:30pm 12.6 7.8 11.7 94 0.5 SSE 28 39 15 21 1013.4 1013.4 2.0
16/10:00pm 12.6 6.7 11.3 92 0.7 S 33 41 18 22 1013.3 1013.3 1.8
16/09:30pm 12.6 7.4 11.7 94 0.5 S 30 39 16 21 1013.2 1013.2 1.8
16/09:00pm 12.7 8.1 11.1 90 0.8 SSW 26 35 14 19 1013.3 1013.3 0.8
16/08:30pm 12.7 7.4 11.3 91 0.7 S 30 39 16 21 1013.1 1013.1 0.8
16/08:00pm 12.5 6.9 11.6 94 0.5 SSW 32 46 17 25 1012.8 1012.8 0.8
16/07:30pm 12.1 7.3 11.5 96 0.3 S 28 41 15 22 1012.7 1012.7 0.8
16/07:00pm 12.4 6.6 11.5 94 0.5 SSW 33 44 18 24 1012.5 1012.5 0.8
16/06:30pm 12.6 6.9 11.0 90 0.8 SSW 32 43 17 23 1012.4 1012.4 0.8
16/06:11pm 12.6 7.2 11.0 90 0.8 S 30 48 16 26 1012.2 1012.2 0.8
16/06:00pm 12.4 6.7 11.0 91 0.7 SSW 32 44 17 24 1012.2 1012.2 0.8
16/05:30pm 12.4 6.1 11.0 91 0.7 SSW 35 48 19 26 1011.9 1011.9 0.8
16/05:00pm 12.2 5.8 10.8 91 0.7 S 35 54 19 29 1011.7 1011.7 0.8
16/04:51pm 12.1 6.1 10.8 92 0.7 S 33 54 18 29 1011.6 1011.6 0.8
16/04:30pm 12.1 5.8 11.2 94 0.5 SSW 35 50 19 27 1011.5 1011.5 0.8
16/04:06pm 11.9 4.8 10.8 93 0.6 SSW 39 57 21 31 1011.5 1011.5 0.6
16/04:00pm 12.2 5.1 10.9 92 0.7 SSW 39 54 21 29 1011.5 1011.5 0.6
16/03:38pm 11.9 4.8 10.8 93 0.6 SSW 39 57 21 31 1011.3 1011.3 0.6
16/03:30pm 11.9 4.8 10.8 93 0.6 SSW 39 54 21 29 1011.4 1011.4 0.6
16/03:00pm 11.9 4.0 10.8 93 0.6 SSW 43 56 23 30 1011.3 1011.3 0.6
16/02:36pm 11.9 4.7 10.5 91 0.7 SSW 39 57 21 31 1011.4 1011.4 0.6
16/02:30pm 11.9 3.9 10.6 92 0.7 SSW 43 57 23 31 1011.4 1011.4 0.6
16/02:00pm 11.9 4.3 10.5 91 0.7 SSW 41 59 22 32 1011.4 1011.4 0.6
16/01:45pm 12.1 4.6 10.8 92 0.7 SSW 41 59 22 32 1011.4 1011.4 0.6
16/01:30pm 11.6 3.6 10.3 92 0.7 SSW 43 59 23 32 1011.5 1011.5 0.6
16/01:23pm 12.1 4.8 10.3 89 0.9 SSW 39 59 21 32 1011.5 1011.5 0.6
16/01:00pm 12.0 5.5 10.2 89 0.9 SSW 35 52 19 28 1011.6 1011.6 0.6
16/12:31pm 12.2 4.9 10.3 88 1.0 SSW 39 57 21 31 1011.9 1011.9 0.4
16/12:30pm 12.2 4.5 10.3 88 1.0 SSW 41 57 22 31 1011.9 1011.9 0.4
16/12:03pm 12.0 4.7 10.2 89 0.9 SSW 39 57 21 31 1012.2 1012.2 0.4
16/12:00pm 11.9 4.2 10.1 89 0.9 SSW 41 57 22 31 1012.3 1012.3 0.4
16/11:39am 11.7 4.4 10.3 91 0.7 SSW 39 57 21 31 1012.3 1012.3 0.4
16/11:30am 11.6 3.6 10.5 93 0.6 SSW 43 57 23 31 1012.4 1012.4 0.4
16/11:00am 11.7 4.8 10.3 91 0.7 S 37 56 20 30 1012.4 1012.4 0.4
16/10:48am 11.5 3.8 10.1 91 0.7 SSW 41 61 22 33 1012.3 1012.3 0.4
16/10:30am 11.2 3.5 10.1 93 0.6 S 41 56 22 30 1012.3 1012.3 0.4
16/10:08am 11.4 3.7 10.1 92 0.7 S 41 59 22 32 1012.1 1012.1 0.2
16/10:00am 11.4 3.3 10.0 91 0.7 S 43 59 23 32 1012.0 1012.0 0.2
16/09:30am 11.3 3.2 9.9 91 0.7 S 43 61 23 33 1011.7 1011.7 0.0
16/09:00am 11.0 2.7 9.9 93 0.6 S 44 63 24 34 1011.5 1011.5 3.0
16/08:30am 10.9 1.4 9.7 92 0.6 SSW 50 72 27 39 1011.1 1011.1 2.8
16/08:00am 11.3 2.8 9.4 88 1.0 SSW 44 65 24 35 1010.8 1010.8 2.8
16/07:30am 10.9 2.3 9.0 88 0.9 S 44 65 24 35 1010.6 1010.6 2.8
16/07:00am 10.6 2.2 9.5 93 0.6 SSW 44 72 24 39 1010.4 1010.4 2.8
16/06:31am 10.5 2.3 9.7 95 0.4 SSW 43 63 23 34 1010.4 1010.4 2.6
16/06:30am 10.4 2.2 9.6 95 0.4 SSW 43 59 23 32 1010.4 1010.4 2.6
16/06:00am 10.6 0.3 9.5 93 0.6 SSW 54 72 29 39 1010.2 1010.2 2.2
16/05:30am 10.9 1.6 9.3 90 0.8 SSW 48 67 26 36 1010.0 1010.0 2.0
16/05:19am 10.8 1.7 9.7 93 0.6 SSW 48 67 26 36 1010.0 1010.0 1.8
16/05:00am 10.8 1.6 9.4 91 0.7 SSW 48 65 26 35 1009.9 1009.9 1.6
16/04:30am 10.7 0.1 8.6 87 1.0 SSW 54 72 29 39 1009.8 1009.8 1.6
16/04:00am 11.0 0.4 8.6 85 1.2 SSW 54 72 29 39 1009.9 1009.9 1.4
16/03:30am 11.0 0.8 8.4 84 1.3 SSW 52 70 28 38 1009.9 1009.9 1.2
16/03:02am 11.1 -0.2 8.1 82 1.5 SSW 57 76 31 41 1009.9 1009.9 1.2
16/03:00am 11.0 -0.1 8.1 82 1.4 SSW 56 70 30 38 1010.0 1010.0 1.2
16/02:31am 10.8 0.3 8.7 87 1.0 SSW 54 72 29 39 1009.6 1009.6 1.2
16/02:30am 10.8 -0.1 8.7 87 1.0 SSW 56 72 30 39 1009.9 1009.9 1.2
16/02:00am 11.1 2.0 8.5 84 1.3 SSW 46 69 25 37 1009.8 1009.8 1.2
16/01:35am 10.9 0.2 8.0 82 1.4 SSW 54 72 29 39 1009.6 1009.6 1.2
16/01:30am 10.7 -0.8 7.2 79 1.7 SSW 57 72 31 39 1009.9 1009.9 1.2
16/01:00am 11.2 0.8 7.7 79 1.7 SSW 52 72 28 39 1009.9 1009.9 1.2
16/12:35am 10.9 0.6 8.0 82 1.4 SSW 52 70 28 38 1009.7 1009.7 1.2
16/12:30am 10.9 -0.2 7.8 81 1.5 SSW 56 70 30 38 1010.0 1010.0 1.2
16/12:00am 11.1 1.9 8.0 81 1.5 SSW 46 70 25 38 1010.0 1010.0 1.2
 
Date/Time
EST
Temp
°C
App
Temp
°C
Dew
Point
°C
Rel
Hum
%
Delta-T
°C
Wind Press
QNH
hPa
Press
MSL
hPa
Rain since
9am
mm
Dir  Spd
km/h
Gust
km/h
Spd
kts
Gust
kts
15/11:30pm 11.0 1.8 7.9 81 1.5 SSW 46 67 25 36 1010.1 1010.1 1.2
15/11:00pm 10.6 0.5 7.3 80 1.6 SSW 50 72 27 39 1010.2 1010.2 1.2
15/10:30pm 11.0 0.9 7.5 79 1.7 SSW 50 70 27 38 1010.4 1010.4 1.2
15/10:00pm 11.1 1.7 8.7 85 1.2 SSW 48 69 26 37 1010.5 1010.5 1.2
15/09:44pm 10.7 2.0 7.8 82 1.4 SSW 43 72 23 39 1010.7 1010.7 1.2
15/09:30pm 10.6 2.8 8.2 85 1.2 S 39 69 21 37 1010.5 1010.5 1.2
15/09:25pm 10.5 0.4 7.6 82 1.4 SSW 50 70 27 38 1010.5 1010.5 1.2
15/09:11pm 10.0 -0.8 7.6 85 1.2 SSW 54 78 29 42 1010.9 1010.9 1.2
15/09:08pm 10.3 0.2 7.5 83 1.3 SSW 50 78 27 42 1010.7 1010.7 1.2
15/09:00pm 10.6 1.8 7.3 80 1.6 SSW 43 69 23 37 1010.6 1010.6 1.2
15/08:30pm 10.4 -0.2 8.5 88 0.9 SSW 54 72 29 39 1010.6 1010.6 1.2
15/08:00pm 9.8 1.7 8.7 93 0.5 SSW 41 59 22 32 1010.7 1010.7 1.2
15/07:51pm 10.9 3.2 8.5 85 1.2 S 39 61 21 33 1010.2 1010.2 0.6
15/07:48pm 11.0 2.2 7.9 81 1.5 SSW 44 61 24 33 1010.4 1010.4 0.4
15/07:30pm 9.4 -0.7 7.5 88 0.9 SSW 50 74 27 40 1010.7 1010.7 0.4
15/07:00pm 10.7 1.1 7.8 82 1.4 SSW 48 69 26 37 1010.6 1010.6 0.4
15/06:30pm 10.5 1.8 7.9 84 1.3 SSW 43 72 23 39 1010.7 1010.7 0.2
15/06:00pm 11.0 3.1 7.9 81 1.5 S 39 61 21 33 1010.1 1010.1 0.0
15/05:30pm 10.8 3.9 7.1 78 1.8 S 33 54 18 29 1010.0 1010.0 0.0
15/05:00pm 10.2 3.3 7.4 83 1.3 S 33 63 18 34 1010.2 1010.2 0.0
15/04:42pm 9.5 -0.4 6.6 82 1.4 SSW 48 72 26 39 1010.5 1010.5 0.0
15/04:38pm 10.2 2.2 7.4 83 1.3 S 39 72 21 39 1010.6 1010.6 0.0
15/04:35pm 11.3 4.5 7.0 75 2.1 S 32 72 17 39 1010.4 1010.4 0.0
15/04:30pm 11.7 5.6 6.6 71 2.4 S 28 52 15 28 1010.0 1010.0 0.0
15/04:00pm 11.3 4.4 6.6 73 2.2 S 32 54 17 29 1010.2 1010.2 0.0
15/03:41pm 11.5 3.3 4.5 62 3.2 S 37 56 20 30 1010.4 1010.4 0.0
15/03:30pm 11.7 2.2 5.1 64 3.0 SSW 44 57 24 31 1010.4 1010.4 0.0
15/03:00pm 11.8 3.9 4.5 61 3.3 S 35 54 19 29 1010.3 1010.3 0.0
15/02:58pm 11.9 4.2 5.3 64 3.1 S 35 54 19 29 1010.2 1010.2 0.0
15/02:30pm 11.7 2.5 5.6 66 2.8 SSW 43 56 23 30 1010.5 1010.5 0.0
15/02:19pm 11.6 3.1 5.0 64 3.0 SSW 39 57 21 31 1010.4 1010.4 0.0
15/02:00pm 12.2 3.6 4.9 61 3.4 SSW 39 54 21 29 1010.4 1010.4 0.0
15/01:30pm 11.9 2.0 4.6 61 3.3 SSW 46 56 25 30 1010.8 1010.8 0.0
15/01:00pm 12.0 2.8 5.6 65 3.0 SSW 43 52 23 28 1011.0 1011.0 0.0
15/12:30pm 11.9 3.5 5.8 66 2.9 SSW 39 54 21 29 1011.3 1011.3 0.0
15/12:22pm 12.2 4.5 5.4 63 3.2 SSW 35 54 19 29 1011.5 1011.5 0.0
15/12:00pm 12.2 4.6 5.6 64 3.1 SSW 35 44 19 24 1011.9 1011.9 0.0
15/11:43am 11.5 4.3 4.9 64 3.0 SSW 32 50 17 27 1012.2 1012.2 0.0
15/11:30am 12.3 5.4 6.4 67 2.8 SSW 32 46 17 25 1012.3 1012.3 0.0
15/11:00am 12.0 4.8 5.2 63 3.1 S 32 46 17 25 1012.5 1012.5 0.0
15/10:30am 11.9 4.8 5.3 64 3.1 S 32 44 17 24 1012.5 1012.5 0.0
15/10:00am 11.6 4.7 4.8 63 3.1 SSW 30 43 16 23 1012.4 1012.4 0.0
15/09:30am 11.4 5.1 5.7 68 2.6 SSW 28 39 15 21 1012.2 1012.2 0.0
15/09:00am 11.3 5.1 6.2 71 2.4 SSW 28 43 15 23 1012.0 1012.0 3.6
15/08:30am 10.9 4.7 6.1 72 2.2 S 28 39 15 21 1011.7 1011.7 3.6
15/08:00am 10.4 4.4 7.1 80 1.6 SSW 28 43 15 23 1011.6 1011.6 3.6
15/07:51am 10.2 5.5 7.6 84 1.2 S 22 43 12 23 1011.7 1011.7 3.6
15/07:30am 10.2 6.1 7.8 85 1.2 S 19 24 10 13 1011.7 1011.7 3.4
15/07:00am 9.7 5.0 7.8 88 0.9 SSW 22 30 12 16 1011.7 1011.7 3.2
15/06:30am 9.8 3.6 7.7 87 1.0 SSW 30 39 16 21 1011.7 1011.7 3.0
15/06:08am 10.1 3.7 7.0 81 1.5 S 30 50 16 27 1011.5 1011.5 2.8
15/06:00am 9.5 2.9 5.9 78 1.7 S 30 39 16 21 1011.5 1011.5 2.8
15/05:30am 9.7 5.4 7.8 88 0.9 S 20 30 11 16 1011.5 1011.5 2.8
15/05:00am 10.3 5.3 7.9 85 1.2 S 24 43 13 23 1011.6 1011.6 2.0
15/04:33am 10.0 3.9 6.5 79 1.6 SSW 28 46 15 25 1011.7 1011.7 1.8
15/04:30am 10.0 4.7 6.9 81 1.5 SSW 24 39 13 21 1011.7 1011.7 1.8
15/04:14am 10.1 4.1 7.2 82 1.4 SSW 28 43 15 23 1011.9 1011.9 1.8
15/04:00am 9.8 5.5 7.2 84 1.2 S 19 35 10 19 1011.9 1011.9 1.8
15/03:30am 10.3 3.7 6.1 75 2.0 SSW 30 43 16 23 1012.1 1012.1 1.4
15/03:00am 10.6 4.4 6.0 73 2.1 SSW 28 35 15 19 1012.3 1012.3 1.4
15/02:30am 10.2 6.3 7.1 81 1.5 S 17 35 9 19 1012.3 1012.3 1.4
15/02:00am 10.8 7.2 6.6 75 2.0 E 15 24 8 13 1012.4 1012.4 1.4
15/01:30am 11.1 6.4 6.0 71 2.4 S 20 35 11 19 1012.6 1012.6 1.4
15/01:00am 10.5 6.4 7.7 83 1.4 S 19 28 10 15 1012.8 1012.8 1.4
15/12:30am 10.4 4.8 7.1 80 1.6 SSW 26 37 14 20 1013.2 1013.2 1.4
15/12:00am 10.5 4.6 7.4 81 1.5 SSW 28 39 15 21 1013.5 1013.5 1.4
 
Date/Time
EST
Temp
°C
App
Temp
°C
Dew
Point
°C
Rel
Hum
%
Delta-T
°C
Wind Press
QNH
hPa
Press
MSL
hPa
Rain since
9am
mm
Dir  Spd
km/h
Gust
km/h
Spd
kts
Gust
kts
14/11:30pm 10.2 3.9 7.3 82 1.4 SSW 30 39 16 21 1013.9 1013.9 1.4
14/11:15pm 10.5 6.5 8.3 86 1.1 SSW 19 44 10 24 1013.9 1013.9 1.4
14/11:00pm 10.6 6.9 7.8 83 1.4 S 17 28 9 15 1014.0 1014.0 1.4
14/10:30pm 10.8 7.3 7.3 79 1.7 SSE 15 24 8 13 1014.1 1014.1 1.0
14/10:00pm 10.1 6.0 7.7 85 1.2 S 19 28 10 15 1014.3 1014.3 1.0
14/09:30pm 10.3 7.5 7.0 80 1.6 SSE 11 20 6 11 1014.5 1014.5 1.0
14/09:00pm 10.4 7.2 6.7 78 1.7 NE 13 19 7 10 1014.6 1014.6 0.6
14/08:30pm 11.1 8.5 7.6 79 1.7 NE 11 20 6 11 1014.8 1014.8 0.6

Other formats

Comma delimited format used in spreadsheet applications
http://www.bom.gov.au/fwo/IDV60801/IDV60801.94826.axf

JavaScript Object Notation format (JSON) in row-major order
http://www.bom.gov.au/fwo/IDV60801/IDV60801.94826.json

Data quality

Most of these data are generated automatically and are frequently updated. Quality checks on data are not normally performed. It is possible for incorrect values to appear. Refer to information at About Latest Weather Observations and please check the disclaimer before using these data.